createdAt,value
2019-05-12T00:10:08.841Z,8.93
2019-05-12T00:20:42.286Z,8.66
2019-05-12T00:31:15.781Z,8.57
2019-05-12T00:41:48.566Z,8.84
2019-05-12T00:52:22.238Z,9.07
2019-05-12T01:02:57.974Z,8.71
2019-05-12T01:13:31.539Z,8.67
2019-05-12T01:24:05.138Z,8.63
2019-05-12T01:34:38.264Z,8.53
2019-05-12T01:45:11.417Z,8.47
2019-05-12T01:55:44.791Z,8.27
2019-05-12T02:06:18.564Z,8.01
2019-05-12T02:16:52.214Z,8.15
2019-05-12T02:27:25.070Z,8.05
2019-05-12T02:37:57.790Z,8.25
2019-05-12T02:48:31.313Z,8.07
2019-05-12T02:59:05.400Z,7.97
2019-05-12T03:09:40.454Z,7.68
2019-05-12T03:20:15.335Z,7.89
2019-05-12T03:30:49.491Z,8.09
2019-05-12T03:41:25.055Z,8.49
2019-05-12T03:51:58.059Z,9.58
2019-05-12T04:02:33.990Z,10.72
2019-05-12T04:13:07.055Z,11.84
2019-05-12T04:23:39.791Z,13.32
2019-05-12T04:34:15.767Z,14.33
2019-05-12T04:44:47.823Z,14.12
2019-05-12T04:55:21.533Z,13.58
2019-05-12T05:05:55.161Z,14.53
2019-05-12T05:16:28.446Z,14.89
2019-05-12T05:27:01.118Z,15.71
2019-05-12T05:37:36.895Z,17.35
2019-05-12T05:48:10.497Z,19.44
2019-05-12T05:58:47.179Z,21.08
2019-05-12T06:09:20.731Z,19.72
2019-05-12T06:19:54.477Z,20.63
2019-05-12T06:30:29.013Z,22.49
2019-05-12T06:40:40.198Z,22.55
2019-05-12T06:50:40.316Z,21.51
2019-05-12T07:00:43.809Z,20.05
2019-05-12T07:10:51.645Z,21.67
2019-05-12T07:20:53.600Z,21.09
2019-05-12T07:30:55.811Z,21.76
2019-05-12T07:41:00.644Z,22.22
2019-05-12T07:51:05.230Z,22.47
2019-05-12T08:01:08.145Z,21.77
2019-05-12T08:11:14.759Z,23.08
2019-05-12T08:21:18.822Z,24.60
2019-05-12T08:31:23.416Z,25.49
2019-05-12T08:41:26.866Z,24.88
2019-05-12T08:51:33.738Z,25.51
2019-05-12T09:01:37.706Z,24.91
2019-05-12T09:11:44.075Z,24.31
2019-05-12T09:21:47.702Z,23.55
2019-05-12T09:31:53.119Z,24.03
2019-05-12T09:41:55.860Z,24.76
2019-05-12T09:52:00.274Z,24.31
2019-05-12T10:02:03.690Z,23.38
2019-05-12T10:12:06.571Z,23.81
2019-05-12T10:22:09.128Z,23.68
2019-05-12T10:32:13.365Z,24.12
2019-05-12T10:42:16.966Z,24.12
2019-05-12T10:52:24.391Z,25.12
2019-05-12T11:02:30.658Z,25.46
2019-05-12T11:12:34.072Z,25.41
2019-05-12T11:22:37.741Z,26.20
2019-05-12T11:32:41.117Z,24.97
2019-05-12T11:42:46.827Z,24.73
2019-05-12T11:52:51.068Z,23.16
2019-05-12T12:02:54.493Z,22.75
2019-05-12T12:12:57.981Z,22.42
2019-05-12T12:23:08.888Z,22.11
2019-05-12T12:33:05.986Z,21.67
2019-05-12T12:43:09.308Z,21.18
2019-05-12T12:53:12.377Z,20.87
2019-05-12T13:03:19.690Z,21.06
2019-05-12T13:13:21.700Z,21.08
2019-05-12T13:23:36.789Z,20.74
2019-05-12T13:33:30.654Z,20.74
2019-05-12T13:43:34.052Z,21.33
2019-05-12T13:53:40.334Z,21.65
2019-05-12T14:03:46.277Z,21.16
2019-05-12T14:13:49.857Z,21.98
2019-05-12T14:23:54.040Z,21.82
2019-05-12T14:33:59.737Z,20.82
2019-05-12T14:44:03.622Z,20.39
2019-05-12T14:54:07.156Z,20.62
2019-05-12T15:04:13.350Z,20.21
2019-05-12T15:14:17.033Z,20.20
2019-05-12T15:24:24.573Z,19.86
2019-05-12T15:34:28.409Z,19.78
2019-05-12T15:44:36.309Z,19.52
2019-05-12T15:54:45.643Z,19.22
2019-05-12T16:04:48.208Z,19.04
2019-05-12T16:14:49.475Z,18.90
2019-05-12T16:24:53.198Z,18.78
2019-05-12T16:34:55.956Z,18.62
2019-05-12T16:45:05.992Z,18.50
2019-05-12T16:55:09.911Z,18.42
2019-05-12T17:05:18.478Z,18.35
2019-05-12T17:15:18.547Z,18.28
2019-05-12T17:25:23.929Z,18.17
2019-05-12T17:35:31.489Z,18.02
2019-05-12T17:45:31.306Z,17.90
2019-05-12T17:55:35.562Z,17.74
2019-05-12T18:05:42.349Z,17.70
2019-05-12T18:15:44.216Z,17.59
2019-05-12T18:25:46.918Z,17.40
2019-05-12T18:35:49.490Z,17.27
2019-05-12T18:45:57.125Z,17.16
2019-05-12T18:55:59.546Z,17.19
2019-05-12T19:06:04.061Z,17.16
2019-05-12T19:16:11.170Z,17.07
2019-05-12T19:26:13.836Z,17.01
2019-05-12T19:36:16.421Z,16.91
2019-05-12T19:46:21.238Z,16.96
2019-05-12T19:56:24.020Z,16.96
2019-05-12T20:06:27.122Z,16.83
2019-05-12T20:16:30.688Z,16.76
2019-05-12T20:26:38.171Z,16.48
2019-05-12T20:36:39.524Z,16.25
2019-05-12T20:46:43.302Z,16.16
2019-05-12T20:56:52.958Z,15.84
2019-05-12T21:06:54.363Z,15.93
2019-05-12T21:17:03.053Z,15.60
2019-05-12T21:27:03.883Z,15.50
2019-05-12T21:37:13.761Z,15.40
2019-05-12T21:47:16.359Z,15.40
2019-05-12T21:57:27.564Z,15.21
2019-05-12T22:07:29.532Z,14.96
2019-05-12T22:17:33.516Z,14.54
2019-05-12T22:27:36.065Z,14.05
2019-05-12T22:37:39.366Z,13.37
2019-05-12T22:47:43.928Z,13.26
2019-05-12T22:57:48.170Z,13.40
2019-05-12T23:07:54.445Z,13.24
2019-05-12T23:17:57.245Z,13.29
2019-05-12T23:28:06.805Z,13.06
2019-05-12T23:38:10.540Z,12.92
2019-05-12T23:48:14.385Z,12.37
2019-05-12T23:58:18.588Z,11.45
